PTG weather

Polokwane International Airport
Polokwane, Limpopo, South Africa

Public forecast

Using degrees Celsius for public forecast. Weather courtesy of forecast.io.

Current aviation weather report (METAR) for Polokwane International Airport

Retrieved 2020/05/26 19:00 UTC (36 minutes ago):

FAPP 261900Z AUTO 19005KT //// // ////// 18/M00 Q1016

Aviation forecast (TAF) for Polokwane International Airport

Forecast is more than 12 hours old.

Retrieved 2017/06/05 04:55 UTC (3 years ago):

TAF FAPP 050300Z 0504/0515 16005KT CAVOK BECMG 0508/0510 06008KT TX21/0513ZTN08/0504Z